createdAt,value
2023-03-23T00:00:30.934Z,2.4
2023-03-23T00:01:39.265Z,2.4
2023-03-23T00:02:47.620Z,2.4
2023-03-23T00:03:56.134Z,2
2023-03-23T00:05:04.503Z,2
2023-03-23T00:06:12.822Z,2
2023-03-23T00:07:21.329Z,2.9
2023-03-23T00:08:29.743Z,2.9
2023-03-23T00:09:37.999Z,2.9
2023-03-23T00:10:46.531Z,1.6
2023-03-23T00:11:54.979Z,1.6
2023-03-23T00:13:03.182Z,1.6
2023-03-23T00:14:11.694Z,2.9
2023-03-23T00:15:20.008Z,2.9
2023-03-23T00:16:28.321Z,2.9
2023-03-23T00:17:36.863Z,2.6
2023-03-23T00:18:45.209Z,2.6
2023-03-23T00:19:53.528Z,2.6
2023-03-23T00:21:02.051Z,1.9
2023-03-23T00:22:10.391Z,1.9
2023-03-23T00:23:18.734Z,1.9
2023-03-23T00:24:27.263Z,2.4
2023-03-23T00:25:35.577Z,2.4
2023-03-23T00:26:47.946Z,2.4
2023-03-23T00:27:52.473Z,1.8
2023-03-23T00:29:00.773Z,1.8
2023-03-23T00:30:09.086Z,1.8
2023-03-23T00:31:17.635Z,1.7
2023-03-23T00:32:25.967Z,1.7
2023-03-23T00:33:34.290Z,1.7
2023-03-23T00:34:42.807Z,2.5
2023-03-23T00:35:51.134Z,2.5
2023-03-23T00:36:59.483Z,2.5
2023-03-23T00:38:07.991Z,1.9
2023-03-23T00:39:16.342Z,1.9
2023-03-23T00:40:24.670Z,1.9
2023-03-23T00:41:33.191Z,2.7
2023-03-23T00:42:41.517Z,2.7
2023-03-23T00:43:49.887Z,2.7
2023-03-23T00:44:58.382Z,2.3
2023-03-23T00:46:06.693Z,2.3
2023-03-23T00:47:15.002Z,2.3
2023-03-23T00:48:23.555Z,1.9
2023-03-23T00:49:31.873Z,1.9
2023-03-23T00:50:40.184Z,1.9
2023-03-23T00:51:48.708Z,2.4
2023-03-23T00:52:57.021Z,2.4
2023-03-23T00:54:05.361Z,2.4
2023-03-23T00:55:13.884Z,2.3
2023-03-23T00:56:22.218Z,2.3
2023-03-23T00:57:30.532Z,2.3
2023-03-23T00:58:39.072Z,2.4
2023-03-23T00:59:47.407Z,2.4
2023-03-23T01:00:55.737Z,2.4
2023-03-23T01:02:04.256Z,1.4
2023-03-23T01:03:12.607Z,1.4
2023-03-23T01:04:20.931Z,1.4
2023-03-23T01:05:29.455Z,2
2023-03-23T01:06:37.805Z,2
2023-03-23T01:07:46.151Z,2
2023-03-23T01:08:54.701Z,2.4
2023-03-23T01:10:03.013Z,2.4
2023-03-23T01:11:11.331Z,2.4
2023-03-23T01:12:19.858Z,1.5
2023-03-23T01:13:28.197Z,1.5
2023-03-23T01:14:36.517Z,1.5
2023-03-23T01:15:45.083Z,1.9
2023-03-23T01:16:53.397Z,1.9
2023-03-23T01:18:01.718Z,1.9
2023-03-23T01:19:10.262Z,3
2023-03-23T01:20:18.569Z,3
2023-03-23T01:21:26.908Z,3
2023-03-23T01:22:35.464Z,2.1
2023-03-23T01:23:43.778Z,2.1
2023-03-23T01:24:52.110Z,2.1
2023-03-23T01:26:00.639Z,3.1
2023-03-23T01:27:08.972Z,3.1
2023-03-23T01:28:17.314Z,3.1
2023-03-23T01:29:25.839Z,2.5
2023-03-23T01:30:34.161Z,2.5
2023-03-23T01:31:42.509Z,2.5
2023-03-23T01:32:51.014Z,3.1
2023-03-23T01:33:59.350Z,3.1
2023-03-23T01:35:07.663Z,3.1
2023-03-23T01:36:16.210Z,3.4
2023-03-23T01:37:24.531Z,3.4
2023-03-23T01:38:32.849Z,3.4
2023-03-23T01:39:41.377Z,1.7
2023-03-23T01:40:49.708Z,1.7
2023-03-23T01:41:58.018Z,1.7
2023-03-23T01:43:06.565Z,2.2
2023-03-23T01:44:14.902Z,2.2
2023-03-23T01:45:23.216Z,2.2
2023-03-23T01:46:31.753Z,2.2
2023-03-23T01:47:40.106Z,2.2
2023-03-23T01:48:48.440Z,2.2
2023-03-23T01:49:56.960Z,1.9
2023-03-23T01:51:05.293Z,1.9
2023-03-23T01:52:13.628Z,1.9
2023-03-23T01:53:22.169Z,2.5
2023-03-23T01:54:30.515Z,2.5
2023-03-23T01:55:38.985Z,2.5
2023-03-23T01:56:47.369Z,1.7
2023-03-23T01:57:55.698Z,1.7
2023-03-23T01:59:04.049Z,1.7
2023-03-23T02:00:12.581Z,2.7
2023-03-23T02:01:20.885Z,2.7
2023-03-23T02:02:29.229Z,2.7
2023-03-23T02:03:37.790Z,2.4
2023-03-23T02:04:46.103Z,2.4
2023-03-23T02:05:54.443Z,2.4
2023-03-23T02:07:02.954Z,1.5
2023-03-23T02:08:11.311Z,1.5
2023-03-23T02:09:19.649Z,1.5
2023-03-23T02:10:28.190Z,1.5
2023-03-23T02:11:36.510Z,1.5
2023-03-23T02:12:44.839Z,1.5
2023-03-23T02:13:53.365Z,2.5
2023-03-23T02:15:01.687Z,2.5
2023-03-23T02:16:10.011Z,2.5
2023-03-23T02:17:18.552Z,2.2
2023-03-23T02:18:26.898Z,2.2
2023-03-23T02:19:35.250Z,2.2
2023-03-23T02:20:43.765Z,2.4
2023-03-23T02:21:52.092Z,2.4
2023-03-23T02:23:00.438Z,2.4
2023-03-23T02:24:08.993Z,2.8
2023-03-23T02:25:17.323Z,2.8
2023-03-23T02:26:25.642Z,2.8
2023-03-23T02:27:34.160Z,1.9
2023-03-23T02:28:42.498Z,1.9
2023-03-23T02:29:50.832Z,1.9
2023-03-23T02:30:59.365Z,2.6
2023-03-23T02:32:07.686Z,2.6
2023-03-23T02:33:16.025Z,2.6
2023-03-23T02:34:24.554Z,2.2
2023-03-23T02:35:32.897Z,2.2
2023-03-23T02:36:41.183Z,2.2
2023-03-23T02:37:49.722Z,2
2023-03-23T02:38:58.051Z,2
2023-03-23T02:40:06.385Z,2
2023-03-23T02:41:14.903Z,2.6
2023-03-23T02:42:23.256Z,2.6
2023-03-23T02:43:35.106Z,2.6
2023-03-23T02:44:40.103Z,2.2
2023-03-23T02:45:48.428Z,2.2
2023-03-23T02:46:56.737Z,2.2
2023-03-23T02:48:05.252Z,2.5
2023-03-23T02:49:13.593Z,2.5
2023-03-23T02:50:21.935Z,2.5
2023-03-23T02:51:30.484Z,2.4
2023-03-23T02:52:38.782Z,2.4
2023-03-23T02:53:47.136Z,2.4
2023-03-23T02:54:55.650Z,2.4
2023-03-23T02:56:03.990Z,2.4
2023-03-23T02:57:12.304Z,2.4
2023-03-23T02:58:20.844Z,3
2023-03-23T02:59:29.163Z,3
2023-03-23T03:00:37.475Z,3
2023-03-23T03:01:46.006Z,2.7
2023-03-23T03:02:54.344Z,2.7
2023-03-23T03:04:02.689Z,2.7
2023-03-23T03:05:11.218Z,2.2
2023-03-23T03:06:19.529Z,2.2
2023-03-23T03:07:27.868Z,2.2
2023-03-23T03:08:36.413Z,2.7
2023-03-23T03:09:44.754Z,2.7
2023-03-23T03:10:53.053Z,2.7
2023-03-23T03:12:01.597Z,2.7
2023-03-23T03:13:09.931Z,2.7
2023-03-23T03:14:18.283Z,2.7
2023-03-23T03:15:26.810Z,2.2
2023-03-23T03:16:35.140Z,2.2
2023-03-23T03:17:43.462Z,2.2
2023-03-23T03:18:52.004Z,2.1
2023-03-23T03:20:00.347Z,2.1
2023-03-23T03:21:08.683Z,2.1
2023-03-23T03:22:17.203Z,2.3
2023-03-23T03:23:25.558Z,2.3
2023-03-23T03:24:33.847Z,2.3
2023-03-23T03:25:42.486Z,2.6
2023-03-23T03:26:50.674Z,2.6
2023-03-23T03:27:59.021Z,2.6
2023-03-23T03:29:07.575Z,2
2023-03-23T03:30:15.891Z,2
2023-03-23T03:31:24.230Z,2
2023-03-23T03:32:32.770Z,1.9
2023-03-23T03:33:41.115Z,1.9
2023-03-23T03:34:49.422Z,1.9
2023-03-23T03:35:57.983Z,2.6
2023-03-23T03:37:06.291Z,2.6
2023-03-23T03:38:14.612Z,2.6
2023-03-23T03:39:23.158Z,3.7
2023-03-23T03:40:31.462Z,3.7
2023-03-23T03:41:39.765Z,3.7
2023-03-23T03:42:48.316Z,1.9
2023-03-23T03:43:56.650Z,1.9
2023-03-23T03:45:05.001Z,1.9
2023-03-23T03:46:13.520Z,3
2023-03-23T03:47:21.843Z,3
2023-03-23T03:48:30.180Z,3
2023-03-23T03:49:38.728Z,2
2023-03-23T03:50:47.043Z,2
2023-03-23T03:51:55.385Z,2
2023-03-23T03:53:03.901Z,3.4
2023-03-23T03:54:12.251Z,3.4
2023-03-23T03:55:20.612Z,3.4
2023-03-23T03:56:29.124Z,2.4
2023-03-23T03:57:37.427Z,2.4
2023-03-23T03:58:45.769Z,2.4
2023-03-23T03:59:54.291Z,1.8
2023-03-23T04:01:02.609Z,1.8
2023-03-23T04:02:10.932Z,1.8
2023-03-23T04:03:19.475Z,2.1
2023-03-23T04:04:27.788Z,2.1
2023-03-23T04:05:36.116Z,2.1
2023-03-23T04:06:44.651Z,3.9
2023-03-23T04:07:53.009Z,3.9
2023-03-23T04:09:07.555Z,3.9
2023-03-23T04:10:09.878Z,2.6
2023-03-23T04:11:32.351Z,2.6
2023-03-23T04:12:26.531Z,2.6
2023-03-23T04:13:35.089Z,2.8
2023-03-23T04:14:43.397Z,2.8
2023-03-23T04:16:07.384Z,2.8
2023-03-23T04:17:00.286Z,2.5
2023-03-23T04:18:08.601Z,2.5
2023-03-23T04:19:16.954Z,2.5
2023-03-23T04:20:31.596Z,2.1
2023-03-23T04:21:33.799Z,2.1
2023-03-23T04:22:42.135Z,2.1
2023-03-23T04:23:50.707Z,2.7
2023-03-23T04:24:59.051Z,2.7
2023-03-23T04:26:07.353Z,2.7
2023-03-23T04:27:15.929Z,2.3
2023-03-23T04:28:24.243Z,2.3
2023-03-23T04:29:32.574Z,2.3
2023-03-23T04:30:41.106Z,1.7
2023-03-23T04:31:49.452Z,1.7
2023-03-23T04:32:57.773Z,1.7
2023-03-23T04:34:06.327Z,2.4
2023-03-23T04:35:14.723Z,2.4
2023-03-23T04:36:23.071Z,2.4
2023-03-23T04:37:31.667Z,4
2023-03-23T04:38:40.020Z,4
2023-03-23T04:39:48.330Z,4
2023-03-23T04:40:56.854Z,3
2023-03-23T04:42:05.191Z,3
2023-03-23T04:43:13.564Z,3
2023-03-23T04:44:23.783Z,3.2
2023-03-23T04:45:32.111Z,3.2
2023-03-23T04:46:40.445Z,3.2
2023-03-23T04:47:49.003Z,2.7
2023-03-23T04:48:57.334Z,2.7
2023-03-23T04:50:05.669Z,2.7
2023-03-23T04:51:14.194Z,1.9
2023-03-23T04:52:22.556Z,1.9
2023-03-23T04:53:30.877Z,1.9
2023-03-23T04:54:39.425Z,1.7
2023-03-23T04:55:47.756Z,1.7
2023-03-23T04:56:56.098Z,1.7
2023-03-23T04:58:04.692Z,2.7
2023-03-23T04:59:13.073Z,2.7
2023-03-23T05:00:21.361Z,2.7
2023-03-23T05:01:29.926Z,1.5
2023-03-23T05:02:38.247Z,1.5
2023-03-23T05:03:46.637Z,1.5
2023-03-23T05:04:55.724Z,2.3
2023-03-23T05:06:03.505Z,2.3
2023-03-23T05:07:11.827Z,2.3
2023-03-23T05:08:20.381Z,2.9
2023-03-23T05:09:28.701Z,2.9
2023-03-23T05:10:37.038Z,2.9
2023-03-23T05:11:45.565Z,3.5
2023-03-23T05:12:53.901Z,3.5
2023-03-23T05:14:02.249Z,3.5
2023-03-23T05:15:10.820Z,2.5
2023-03-23T05:16:19.116Z,2.5
2023-03-23T05:17:27.442Z,2.5
2023-03-23T05:18:35.995Z,2.5
2023-03-23T05:19:44.333Z,2.5
2023-03-23T05:20:52.678Z,2.5
2023-03-23T05:22:01.236Z,1.8
2023-03-23T05:23:09.555Z,1.8
2023-03-23T05:24:17.904Z,1.8
2023-03-23T05:25:26.512Z,3
2023-03-23T05:26:34.831Z,3
2023-03-23T05:27:43.154Z,3
2023-03-23T05:28:51.686Z,2.2
2023-03-23T05:30:00.007Z,2.2
2023-03-23T05:31:08.351Z,2.2
2023-03-23T05:32:16.856Z,2.3
2023-03-23T05:33:25.186Z,2.3
2023-03-23T05:34:33.492Z,2.3
2023-03-23T05:35:42.399Z,1.8
2023-03-23T05:36:50.386Z,1.8
2023-03-23T05:37:58.746Z,1.8
2023-03-23T05:39:07.309Z,2.5
2023-03-23T05:40:15.637Z,2.5
2023-03-23T05:41:23.975Z,2.5
2023-03-23T05:42:32.499Z,2
2023-03-23T05:43:40.834Z,2
2023-03-23T05:44:49.158Z,2
2023-03-23T05:45:57.690Z,7.6
2023-03-23T05:47:06.033Z,7.6
2023-03-23T05:48:14.325Z,7.6
2023-03-23T05:49:22.896Z,2.8
2023-03-23T05:50:31.203Z,2.8
2023-03-23T05:51:39.562Z,2.8
2023-03-23T05:52:48.077Z,2.8
2023-03-23T05:53:56.413Z,2.8
2023-03-23T05:55:04.736Z,2.8
2023-03-23T05:56:13.266Z,2.5
2023-03-23T05:57:21.606Z,2.5
2023-03-23T05:58:29.928Z,2.5
2023-03-23T05:59:38.464Z,4.3
2023-03-23T06:00:46.789Z,4.3
2023-03-23T06:01:55.142Z,4.3
2023-03-23T06:03:03.714Z,220.89999
2023-03-23T06:04:12.021Z,220.89999
2023-03-23T06:05:20.341Z,220.89999
2023-03-23T06:06:28.872Z,23.9
2023-03-23T06:07:37.196Z,23.9
2023-03-23T06:08:45.516Z,23.9
2023-03-23T06:09:54.049Z,3.3
2023-03-23T06:11:02.371Z,3.3
2023-03-23T06:12:10.678Z,3.3
2023-03-23T06:13:19.242Z,23.9
2023-03-23T06:14:27.593Z,23.9
2023-03-23T06:15:35.884Z,23.9
2023-03-23T06:16:44.424Z,3.8
2023-03-23T06:17:52.746Z,3.8
2023-03-23T06:19:01.084Z,3.8
2023-03-23T06:20:09.585Z,4.9
2023-03-23T06:21:18.344Z,4.9
2023-03-23T06:22:26.213Z,4.9
2023-03-23T06:23:34.749Z,4.3
2023-03-23T06:24:43.063Z,4.3
2023-03-23T06:25:51.382Z,4.3
2023-03-23T06:26:59.917Z,3.6
2023-03-23T06:28:08.244Z,3.6
2023-03-23T06:29:16.564Z,3.6
2023-03-23T06:30:25.103Z,3.1
2023-03-23T06:31:33.420Z,3.1
2023-03-23T06:32:41.733Z,3.1
2023-03-23T06:33:50.278Z,2.6
2023-03-23T06:34:58.612Z,2.6
2023-03-23T06:36:06.928Z,2.6
2023-03-23T06:37:15.446Z,24.799999
2023-03-23T06:38:24.376Z,24.799999
2023-03-23T06:39:32.086Z,24.799999
2023-03-23T06:40:40.620Z,38.200001
2023-03-23T06:41:48.950Z,38.200001
2023-03-23T06:42:57.253Z,38.200001
2023-03-23T06:44:05.793Z,15.6
2023-03-23T06:45:14.104Z,15.6
2023-03-23T06:46:22.423Z,15.6
2023-03-23T06:47:30.952Z,6.1
2023-03-23T06:48:39.285Z,6.1
2023-03-23T06:49:47.615Z,6.1
2023-03-23T06:50:56.170Z,16.6
2023-03-23T06:52:04.469Z,16.6
2023-03-23T06:53:12.795Z,16.6
2023-03-23T06:54:21.355Z,3.1
2023-03-23T06:55:29.693Z,3.1
2023-03-23T06:56:38.032Z,3.1
2023-03-23T06:57:46.563Z,22.9
2023-03-23T06:58:54.888Z,22.9
2023-03-23T07:00:03.213Z,22.9
2023-03-23T07:01:11.752Z,3.4
2023-03-23T07:02:20.058Z,3.4
2023-03-23T07:03:28.373Z,3.4
2023-03-23T07:04:36.885Z,2.9
2023-03-23T07:05:45.208Z,2.9
2023-03-23T07:06:53.563Z,2.9
2023-03-23T07:08:02.051Z,3.3
2023-03-23T07:09:10.388Z,3.3
2023-03-23T07:10:18.699Z,3.3
2023-03-23T07:11:27.238Z,3
2023-03-23T07:12:35.560Z,3
2023-03-23T07:13:43.897Z,3
2023-03-23T07:14:52.420Z,7.3
2023-03-23T07:16:00.738Z,7.3
2023-03-23T07:17:09.048Z,7.3
2023-03-23T07:18:17.583Z,7.9
2023-03-23T07:19:25.919Z,7.9
2023-03-23T07:20:34.216Z,7.9
2023-03-23T07:21:42.741Z,4.1
2023-03-23T07:22:51.077Z,4.1
2023-03-23T07:23:59.374Z,4.1
2023-03-23T07:25:07.893Z,5
2023-03-23T07:26:16.214Z,5
2023-03-23T07:27:24.517Z,5
2023-03-23T07:28:33.053Z,2.7
2023-03-23T07:29:41.388Z,2.7
2023-03-23T07:30:49.712Z,2.7
2023-03-23T07:31:58.235Z,3.2
2023-03-23T07:33:06.556Z,3.2
2023-03-23T07:34:14.869Z,3.2
2023-03-23T07:35:23.398Z,6.4
2023-03-23T07:36:31.721Z,6.4
2023-03-23T07:37:40.083Z,6.4
2023-03-23T07:38:48.592Z,4.4
2023-03-23T07:39:57.005Z,4.4
2023-03-23T07:41:05.188Z,4.4
2023-03-23T07:42:13.714Z,3.6
2023-03-23T07:43:22.043Z,3.6
2023-03-23T07:44:30.363Z,3.6
2023-03-23T07:45:38.888Z,3.8
2023-03-23T07:46:47.205Z,3.8
2023-03-23T07:47:55.520Z,3.8
2023-03-23T07:49:04.053Z,9.7
2023-03-23T07:50:12.379Z,9.7
2023-03-23T07:51:20.696Z,9.7
2023-03-23T07:52:29.226Z,4.2
2023-03-23T07:53:37.555Z,4.2
2023-03-23T07:54:45.893Z,4.2
2023-03-23T07:55:54.394Z,2.9
2023-03-23T07:57:02.711Z,2.9
2023-03-23T07:58:11.022Z,2.9
2023-03-23T07:59:19.553Z,4.7
2023-03-23T08:00:27.884Z,4.7
2023-03-23T08:01:36.203Z,4.7
2023-03-23T08:02:44.723Z,3
2023-03-23T08:03:53.060Z,3
2023-03-23T08:05:01.379Z,3
2023-03-23T08:06:09.899Z,3.2
2023-03-23T08:07:19.995Z,3.2
2023-03-23T08:08:26.544Z,3.2
2023-03-23T08:09:35.060Z,3.3
2023-03-23T08:10:43.476Z,3.3
2023-03-23T08:11:51.698Z,3.3
2023-03-23T08:13:00.227Z,4.4
2023-03-23T08:14:08.552Z,4.4
2023-03-23T08:15:16.880Z,4.4
2023-03-23T08:16:25.553Z,3
2023-03-23T08:17:33.761Z,3
2023-03-23T08:18:42.065Z,3
2023-03-23T08:19:50.592Z,4
2023-03-23T08:20:58.915Z,4
2023-03-23T08:22:07.234Z,4
2023-03-23T08:23:15.753Z,4.3
2023-03-23T08:24:24.074Z,4.3
2023-03-23T08:25:32.395Z,4.3
2023-03-23T08:26:40.957Z,4.8
2023-03-23T08:27:49.256Z,4.8
2023-03-23T08:28:57.583Z,4.8
2023-03-23T08:30:06.125Z,3.3
2023-03-23T08:31:14.459Z,3.3
2023-03-23T08:32:22.757Z,3.3
2023-03-23T08:33:31.297Z,3.5
2023-03-23T08:34:39.610Z,3.5
2023-03-23T08:35:47.934Z,3.5
2023-03-23T08:36:56.459Z,3.6
2023-03-23T08:38:04.783Z,3.6
2023-03-23T08:39:13.099Z,3.6
2023-03-23T08:40:21.630Z,3.1
2023-03-23T08:41:29.956Z,3.1
2023-03-23T08:42:38.294Z,3.1
2023-03-23T08:43:46.812Z,3.1
2023-03-23T08:44:55.131Z,3.1
2023-03-23T08:46:03.453Z,3.1
2023-03-23T08:47:11.975Z,2.4
2023-03-23T08:48:20.318Z,2.4
2023-03-23T08:49:28.645Z,2.4
2023-03-23T08:50:37.160Z,4.1
2023-03-23T08:51:45.477Z,4.1
2023-03-23T08:52:53.787Z,4.1
2023-03-23T08:54:02.344Z,2.7
2023-03-23T08:55:10.669Z,2.7
2023-03-23T08:56:18.987Z,2.7
2023-03-23T08:57:27.519Z,3.2
2023-03-23T08:58:35.879Z,3.2
2023-03-23T08:59:44.169Z,3.2
2023-03-23T09:00:52.698Z,4.7
2023-03-23T09:02:01.023Z,4.7
2023-03-23T09:03:09.349Z,4.7
2023-03-23T09:04:17.873Z,9.3
2023-03-23T09:05:26.208Z,9.3
2023-03-23T09:06:34.528Z,9.3
2023-03-23T09:07:43.038Z,3.9
2023-03-23T09:08:51.370Z,3.9
2023-03-23T09:09:59.689Z,3.9
2023-03-23T09:11:08.253Z,3.9
2023-03-23T09:12:16.588Z,3.9
2023-03-23T09:13:24.912Z,3.9
2023-03-23T09:14:33.450Z,3.2
2023-03-23T09:15:49.637Z,3.2
2023-03-23T09:16:50.063Z,3.2
2023-03-23T09:17:58.740Z,3.6
2023-03-23T09:19:06.940Z,3.6
2023-03-23T09:20:15.256Z,3.6
2023-03-23T09:21:23.844Z,4.8
2023-03-23T09:22:32.160Z,4.8
2023-03-23T09:23:40.490Z,4.8
2023-03-23T09:24:49.011Z,4.6
2023-03-23T09:25:57.326Z,4.6
2023-03-23T09:27:05.668Z,4.6
2023-03-23T09:28:14.190Z,4
2023-03-23T09:29:22.524Z,4
2023-03-23T09:30:30.889Z,4
2023-03-23T09:31:39.377Z,4.4
2023-03-23T09:32:47.712Z,4.4
2023-03-23T09:33:56.077Z,4.4
2023-03-23T09:35:04.612Z,4.2
2023-03-23T09:36:12.952Z,4.2
2023-03-23T09:37:21.279Z,4.2
2023-03-23T09:38:29.805Z,4.6
2023-03-23T09:39:38.350Z,4.6
2023-03-23T09:40:46.668Z,4.6
2023-03-23T09:41:55.202Z,3.9
2023-03-23T09:43:03.542Z,3.9
2023-03-23T09:44:11.840Z,3.9
2023-03-23T09:45:20.380Z,17.6
2023-03-23T09:46:28.748Z,17.6
2023-03-23T09:47:37.039Z,17.6
2023-03-23T09:48:45.583Z,64
2023-03-23T09:49:53.913Z,64
2023-03-23T09:51:02.216Z,64
2023-03-23T09:52:10.749Z,14.4
2023-03-23T09:53:19.627Z,14.4
2023-03-23T09:54:27.415Z,14.4
2023-03-23T09:55:35.943Z,9.3
2023-03-23T09:56:44.295Z,9.3
2023-03-23T09:57:52.615Z,9.3
2023-03-23T09:59:01.160Z,7.7
2023-03-23T10:00:09.492Z,7.7
2023-03-23T10:01:17.809Z,7.7
2023-03-23T10:02:26.369Z,3.8
2023-03-23T10:03:34.663Z,3.8
2023-03-23T10:04:42.974Z,3.8
2023-03-23T10:05:51.507Z,3.6
2023-03-23T10:06:59.837Z,3.6
2023-03-23T10:08:08.160Z,3.6
2023-03-23T10:09:16.704Z,4.3
2023-03-23T10:10:25.013Z,4.3
2023-03-23T10:11:33.331Z,4.3
2023-03-23T10:12:41.847Z,4
2023-03-23T10:13:50.183Z,4
2023-03-23T10:14:58.533Z,4
2023-03-23T10:16:07.069Z,3.5
2023-03-23T10:17:15.403Z,3.5
2023-03-23T10:18:23.718Z,3.5
2023-03-23T10:19:32.218Z,4.3
2023-03-23T10:20:40.534Z,4.3
2023-03-23T10:21:48.854Z,4.3
2023-03-23T10:22:57.379Z,5.2
2023-03-23T10:24:05.709Z,5.2
2023-03-23T10:25:14.023Z,5.2
2023-03-23T10:26:22.546Z,5.6
2023-03-23T10:27:30.876Z,5.6
2023-03-23T10:28:39.204Z,5.6
2023-03-23T10:29:47.733Z,6.7
2023-03-23T10:30:56.072Z,6.7
2023-03-23T10:32:04.391Z,6.7
2023-03-23T10:33:12.915Z,3.9
2023-03-23T10:34:21.286Z,3.9
2023-03-23T10:35:30.781Z,3.9
2023-03-23T10:36:38.140Z,6.9
2023-03-23T10:37:46.473Z,6.9
2023-03-23T10:38:54.803Z,6.9
2023-03-23T10:40:03.343Z,6.7
2023-03-23T10:41:11.643Z,6.7
2023-03-23T10:42:19.958Z,6.7
2023-03-23T10:43:28.494Z,5.6
2023-03-23T10:44:36.845Z,5.6
2023-03-23T10:45:54.948Z,5.6
2023-03-23T10:46:53.681Z,5.2
2023-03-23T10:48:01.997Z,5.2
2023-03-23T10:49:10.334Z,5.2
2023-03-23T10:50:18.883Z,4.5
2023-03-23T10:51:27.214Z,4.5
2023-03-23T10:52:35.508Z,4.5
2023-03-23T10:53:44.043Z,4.6
2023-03-23T10:54:52.408Z,4.6
2023-03-23T10:56:00.732Z,4.6
2023-03-23T10:57:09.260Z,4.9
2023-03-23T10:58:17.589Z,4.9
2023-03-23T10:59:25.921Z,4.9
2023-03-23T11:00:34.454Z,4.1
2023-03-23T11:01:42.773Z,4.1
2023-03-23T11:02:51.102Z,4.1
2023-03-23T11:03:59.652Z,5.1
2023-03-23T11:05:09.367Z,5.1
2023-03-23T11:06:16.306Z,5.1
2023-03-23T11:07:24.818Z,6.5
2023-03-23T11:08:33.173Z,6.5
2023-03-23T11:09:41.524Z,6.5
2023-03-23T11:10:50.062Z,4.5
2023-03-23T11:12:02.210Z,4.5
2023-03-23T11:13:07.332Z,4.5
2023-03-23T11:14:15.893Z,3.4
2023-03-23T11:15:24.237Z,3.4
2023-03-23T11:16:32.543Z,3.4
2023-03-23T11:17:41.079Z,3.1
2023-03-23T11:18:49.427Z,3.1
2023-03-23T11:19:57.747Z,3.1
2023-03-23T11:21:06.296Z,2.9
2023-03-23T11:22:14.656Z,2.9
2023-03-23T11:23:22.977Z,2.9
2023-03-23T11:24:31.507Z,2.9
2023-03-23T11:25:39.858Z,2.9
2023-03-23T11:26:56.951Z,2.9
2023-03-23T11:27:56.701Z,3.9
2023-03-23T11:29:05.049Z,3.9
2023-03-23T11:30:13.374Z,3.9
2023-03-23T11:31:21.913Z,2.4
2023-03-23T11:32:30.235Z,2.4
2023-03-23T11:33:38.586Z,2.4
2023-03-23T11:34:47.138Z,2.7
2023-03-23T11:35:55.483Z,2.7
2023-03-23T11:37:03.804Z,2.7
2023-03-23T11:38:12.374Z,2.3
2023-03-23T11:39:20.705Z,2.3
2023-03-23T11:40:29.037Z,2.3
2023-03-23T11:41:37.574Z,2.6
2023-03-23T11:42:45.902Z,2.6
2023-03-23T11:43:54.233Z,2.6
2023-03-23T11:45:02.768Z,2.6
2023-03-23T11:46:11.106Z,2.6
2023-03-23T11:47:19.438Z,2.6
2023-03-23T11:48:27.974Z,2.1
2023-03-23T11:49:36.332Z,2.1
2023-03-23T11:50:44.675Z,2.1
2023-03-23T11:51:53.207Z,3.4
2023-03-23T11:53:01.557Z,3.4
2023-03-23T11:54:09.919Z,3.4
2023-03-23T11:55:18.459Z,2.2
2023-03-23T11:56:26.775Z,2.2
2023-03-23T11:57:35.124Z,2.2
2023-03-23T11:58:43.685Z,2.6
2023-03-23T11:59:52.052Z,2.6
2023-03-23T12:01:00.402Z,2.6
2023-03-23T12:02:17.448Z,3.2
2023-03-23T12:03:25.584Z,3.2
2023-03-23T12:04:33.932Z,3.2
2023-03-23T12:05:42.560Z,2.7
2023-03-23T12:06:50.810Z,2.7
2023-03-23T12:07:59.151Z,2.7
2023-03-23T12:09:07.699Z,2.1
2023-03-23T12:10:18.326Z,2.1
2023-03-23T12:11:24.350Z,2.1
2023-03-23T12:12:32.901Z,2.5
2023-03-23T12:13:42.355Z,2.5
2023-03-23T12:14:49.596Z,2.5
2023-03-23T12:15:58.141Z,4.6
2023-03-23T12:17:06.455Z,4.6
2023-03-23T12:18:14.791Z,4.6
2023-03-23T12:19:23.335Z,3.4
2023-03-23T12:20:37.699Z,3.4
2023-03-23T12:21:39.988Z,3.4
2023-03-23T12:22:48.553Z,3.7
2023-03-23T12:23:57.347Z,3.7
2023-03-23T12:25:05.221Z,3.7
2023-03-23T12:26:13.798Z,3.1
2023-03-23T12:27:22.093Z,3.1
2023-03-23T12:28:30.450Z,3.1
2023-03-23T12:29:38.993Z,4.9
2023-03-23T12:30:47.349Z,4.9
2023-03-23T12:31:55.684Z,4.9
2023-03-23T12:33:04.220Z,3.4
2023-03-23T12:34:12.555Z,3.4
2023-03-23T12:35:23.949Z,3.4
2023-03-23T12:36:29.433Z,3.8
2023-03-23T12:37:37.767Z,3.8
2023-03-23T12:38:46.159Z,3.8
2023-03-23T12:39:54.693Z,4.3
2023-03-23T12:41:03.029Z,4.3
2023-03-23T12:42:11.389Z,4.3
2023-03-23T12:43:19.890Z,2.5
2023-03-23T12:44:28.227Z,2.5
2023-03-23T12:45:36.556Z,2.5
2023-03-23T12:46:45.083Z,2.7
2023-03-23T12:47:53.412Z,2.7
2023-03-23T12:49:01.760Z,2.7
2023-03-23T12:50:10.306Z,2.3
2023-03-23T12:51:18.641Z,2.3
2023-03-23T12:52:26.974Z,2.3
2023-03-23T12:53:35.542Z,2.7
2023-03-23T12:54:43.865Z,2.7
2023-03-23T12:55:52.203Z,2.7
2023-03-23T12:57:00.751Z,3
2023-03-23T12:58:09.132Z,3
2023-03-23T12:59:17.477Z,3
2023-03-23T13:00:26.013Z,2.7
2023-03-23T13:02:34.484Z,2.7
2023-03-23T13:03:43.184Z,3.7
2023-03-23T13:04:51.517Z,3.7
2023-03-23T13:05:59.864Z,3.7
2023-03-23T13:07:08.387Z,2.9
2023-03-23T13:08:16.714Z,2.9
2023-03-23T13:09:25.077Z,2.9
2023-03-23T13:10:33.626Z,2.6
2023-03-23T13:11:41.949Z,2.6
2023-03-23T13:12:50.278Z,2.6
2023-03-23T13:13:58.849Z,2.1
2023-03-23T13:15:07.159Z,2.1
2023-03-23T13:16:15.489Z,2.1
2023-03-23T13:17:24.030Z,2
2023-03-23T13:18:32.360Z,2
2023-03-23T13:19:40.700Z,2
2023-03-23T13:20:49.253Z,2
2023-03-23T13:21:57.593Z,2
2023-03-23T13:23:05.912Z,2
2023-03-23T13:24:14.467Z,2.9
2023-03-23T13:25:22.834Z,2.9
2023-03-23T13:26:31.158Z,2.9
2023-03-23T13:27:39.697Z,1.6
2023-03-23T13:28:49.685Z,1.6
2023-03-23T13:29:56.386Z,1.6
2023-03-23T13:31:04.914Z,1.9
2023-03-23T13:32:13.255Z,1.9
2023-03-23T13:33:21.581Z,1.9
2023-03-23T13:34:30.118Z,2.2
2023-03-23T13:35:38.457Z,2.2
2023-03-23T13:36:46.781Z,2.2
2023-03-23T13:37:55.336Z,6.2
2023-03-23T13:39:03.682Z,6.2
2023-03-23T13:40:12.861Z,6.2
2023-03-23T13:41:20.531Z,9.2
2023-03-23T13:42:28.918Z,9.2
2023-03-23T13:43:37.239Z,9.2
2023-03-23T13:44:45.783Z,5.6
2023-03-23T13:45:54.143Z,5.6
2023-03-23T13:47:02.446Z,5.6
2023-03-23T13:48:10.994Z,3.7
2023-03-23T13:49:19.331Z,3.7
2023-03-23T13:50:27.674Z,3.7
2023-03-23T13:51:36.212Z,2.6
2023-03-23T13:52:44.583Z,2.6
2023-03-23T13:53:52.914Z,2.6
2023-03-23T13:55:01.472Z,2.6
2023-03-23T13:56:15.543Z,2.6
2023-03-23T13:57:18.105Z,2.6
2023-03-23T13:58:26.636Z,2.8
2023-03-23T13:59:34.983Z,2.8
2023-03-23T14:00:43.320Z,2.8
2023-03-23T14:01:51.877Z,4.1
2023-03-23T14:03:00.184Z,4.1
2023-03-23T14:04:08.530Z,4.1
2023-03-23T14:05:17.072Z,2.4
2023-03-23T14:06:25.440Z,2.4
2023-03-23T14:07:33.808Z,2.4
2023-03-23T14:08:42.334Z,4.7
2023-03-23T14:09:50.673Z,4.7
2023-03-23T14:10:58.998Z,4.7
2023-03-23T14:12:07.539Z,3.1
2023-03-23T14:13:15.875Z,3.1
2023-03-23T14:14:24.229Z,3.1
2023-03-23T14:15:32.860Z,2
2023-03-23T14:16:41.140Z,2
2023-03-23T14:17:49.728Z,2
2023-03-23T14:18:58.255Z,2.2
2023-03-23T14:20:06.599Z,2.2
2023-03-23T14:21:14.932Z,2.2
2023-03-23T14:22:23.478Z,2.6
2023-03-23T14:23:31.817Z,2.6
2023-03-23T14:24:40.175Z,2.6
2023-03-23T14:25:48.718Z,1.7
2023-03-23T14:26:57.065Z,1.7
2023-03-23T14:28:05.389Z,1.7
2023-03-23T14:29:13.935Z,2.5
2023-03-23T14:30:22.254Z,2.5
2023-03-23T14:31:30.635Z,2.5
2023-03-23T14:32:39.173Z,2.3
2023-03-23T14:33:47.540Z,2.3
2023-03-23T14:34:55.837Z,2.3
2023-03-23T14:36:04.384Z,3.1
2023-03-23T14:37:12.707Z,3.1
2023-03-23T14:38:21.027Z,3.1
2023-03-23T14:39:29.568Z,2.6
2023-03-23T14:40:37.896Z,2.6
2023-03-23T14:41:46.230Z,2.6
2023-03-23T14:42:54.808Z,2.7
2023-03-23T14:44:03.112Z,2.7
2023-03-23T14:45:11.442Z,2.7
2023-03-23T14:46:19.992Z,2.6
2023-03-23T14:47:28.336Z,2.6
2023-03-23T14:48:36.699Z,2.6
2023-03-23T14:49:45.266Z,2.9
2023-03-23T14:50:53.562Z,2.9
2023-03-23T14:52:01.902Z,2.9
2023-03-23T14:53:10.452Z,1.7
2023-03-23T14:54:18.803Z,1.7
2023-03-23T14:55:27.156Z,1.7
2023-03-23T14:56:35.696Z,2.4
2023-03-23T14:57:44.055Z,2.4
2023-03-23T14:58:52.408Z,2.4
2023-03-23T15:00:00.926Z,1.7
2023-03-23T15:01:09.264Z,1.7
2023-03-23T15:02:17.587Z,1.7
2023-03-23T15:03:26.122Z,1.8
2023-03-23T15:04:34.465Z,1.8
2023-03-23T15:05:42.916Z,1.8
2023-03-23T15:39:03.772Z,0
2023-03-23T15:40:12.069Z,0
2023-03-23T15:41:20.414Z,0
2023-03-23T15:42:29.192Z,4.4
2023-03-23T15:43:40.278Z,4.4
2023-03-23T15:44:48.598Z,4.4
2023-03-23T15:45:57.136Z,1.8
2023-03-23T15:47:07.205Z,1.8
2023-03-23T15:48:13.799Z,1.8
2023-03-23T15:49:22.349Z,1.6
2023-03-23T15:50:30.677Z,1.6
2023-03-23T15:51:39.000Z,1.6
2023-03-23T15:52:47.525Z,2
2023-03-23T15:53:56.561Z,2
2023-03-23T15:55:04.241Z,2
2023-03-23T15:56:12.755Z,3.1
2023-03-23T15:57:21.077Z,3.1
2023-03-23T15:58:29.400Z,3.1
2023-03-23T15:59:37.951Z,2.1
2023-03-23T16:00:46.370Z,2.1
2023-03-23T16:01:54.667Z,2.1
2023-03-23T16:03:03.221Z,2.3
2023-03-23T16:04:11.488Z,2.3
2023-03-23T16:05:19.818Z,2.3
2023-03-23T16:06:28.360Z,1.9
2023-03-23T16:07:36.693Z,1.9
2023-03-23T16:08:45.031Z,1.9
2023-03-23T16:09:53.573Z,2.2
2023-03-23T16:11:01.946Z,2.2
2023-03-23T16:12:10.217Z,2.2
2023-03-23T16:13:18.760Z,2.8
2023-03-23T16:14:27.123Z,2.8
2023-03-23T16:15:35.432Z,2.8
2023-03-23T16:16:43.968Z,2.9
2023-03-23T16:17:52.291Z,2.9